Time;durP1;ratioP1;P1;durP2;ratioP2;P2;SDS_P1;SDS_P2;PMS_P1;PMS_P2;Temp;Humidity;BMP_temperature;BMP_pressure;BME280_temperature;BME280_humidity;BME280_pressure;Samples;Min_cycle;Max_cycle;Signal;HPM_P1;HPM_P2
2023/08/01 00:00:56;;;;;;;9.68;8.40;;;;;;;17.57;100.00;99689.84;3605183;39;20409;-64
2023/08/01 00:03:21;;;;;;;9.70;8.45;;;;;;;17.55;100.00;99678.31;3605146;39;20115;-64
2023/08/01 00:05:47;;;;;;;9.45;8.45;;;;;;;17.54;100.00;99665.75;3607379;39;20043;-64
2023/08/01 00:08:13;;;;;;;8.73;7.93;;;;;;;17.52;100.00;99671.34;3605660;39;20051;-64
2023/08/01 00:10:42;;;;;;;10.50;8.65;;;;;;;17.45;100.00;99659.44;3604394;39;20047;-64
2023/08/01 00:13:09;;;;;;;9.02;8.05;;;;;;;17.48;100.00;99669.13;3608018;39;20043;-64
2023/08/01 00:15:35;;;;;;;9.98;8.35;;;;;;;17.46;100.00;99655.69;3609333;39;20058;-64
2023/08/01 00:18:01;;;;;;;8.73;7.82;;;;;;;17.46;100.00;99657.56;3606210;39;20407;-64
2023/08/01 00:20:26;;;;;;;10.57;7.93;;;;;;;17.43;100.00;99668.78;3610483;39;20082;-65
2023/08/01 00:22:52;;;;;;;10.15;8.57;;;;;;;17.39;100.00;99673.69;3606587;39;20057;-65
2023/08/01 00:25:18;;;;;;;9.68;8.60;;;;;;;17.34;100.00;99668.75;3604223;39;20055;-64
2023/08/01 00:27:44;;;;;;;13.20;8.55;;;;;;;17.36;100.00;99664.00;3604368;39;20417;-64
2023/08/01 00:30:10;;;;;;;9.73;8.15;;;;;;;17.36;100.00;99663.16;3604396;39;20054;-64
2023/08/01 00:32:37;;;;;;;8.73;7.82;;;;;;;17.34;100.00;99662.47;3607827;39;20074;-64
2023/08/01 00:35:04;;;;;;;10.85;8.70;;;;;;;17.27;100.00;99648.72;3613090;39;20058;-64
2023/08/01 00:37:30;;;;;;;9.20;7.93;;;;;;;17.28;100.00;99647.69;3606591;39;20120;-65
2023/08/01 00:39:56;;;;;;;11.55;7.72;;;;;;;17.27;100.00;99642.44;3604285;39;20063;-64
2023/08/01 00:42:21;;;;;;;11.57;8.50;;;;;;;17.27;100.00;99650.56;3605771;39;20350;-64
2023/08/01 00:44:48;;;;;;;9.48;8.40;;;;;;;17.24;100.00;99659.91;3604337;39;20055;-64
2023/08/01 00:47:15;;;;;;;8.95;8.05;;;;;;;17.20;100.00;99652.28;3604639;39;20362;-64
2023/08/01 00:49:42;;;;;;;12.00;8.23;;;;;;;17.18;100.00;99655.13;3611020;39;20062;-64
2023/08/01 00:52:09;;;;;;;10.75;8.00;;;;;;;17.14;100.00;99654.63;3604298;39;20116;-64
2023/08/01 00:54:36;;;;;;;8.38;7.57;;;;;;;17.12;100.00;99647.66;3608752;39;20067;-64
2023/08/01 00:57:06;;;;;;;10.73;8.05;;;;;;;17.08;100.00;99654.44;3605710;39;20051;-64
2023/08/01 00:59:32;;;;;;;10.05;8.30;;;;;;;16.91;100.00;99637.25;3605173;39;20391;-64
2023/08/01 01:02:00;;;;;;;11.00;7.88;;;;;;;16.98;100.00;99654.56;3607125;39;20054;-64
2023/08/01 01:04:27;;;;;;;10.30;7.43;;;;;;;16.96;100.00;99651.16;3605597;39;20393;-64
2023/08/01 01:07:03;;;;;;;9.48;7.70;;;;;;;16.91;100.00;99648.97;3604781;39;20451;-64
2023/08/01 01:09:33;;;;;;;8.32;7.43;;;;;;;16.88;100.00;99643.00;3604117;39;20380;-64
2023/08/01 01:12:00;;;;;;;10.90;7.30;;;;;;;16.87;100.00;99642.16;3610114;39;20043;-64
2023/08/01 01:14:28;;;;;;;8.90;6.82;;;;;;;16.81;100.00;99637.41;3608008;39;20316;-64
2023/08/01 01:16:55;;;;;;;11.52;7.53;;;;;;;16.79;100.00;99644.84;3609574;39;20053;-64
2023/08/01 01:19:21;;;;;;;11.52;7.47;;;;;;;16.72;100.00;99632.91;3604647;39;20055;-64
2023/08/01 01:21:49;;;;;;;9.65;6.93;;;;;;;16.70;100.00;99640.38;3604173;39;20074;-64
2023/08/01 01:24:17;;;;;;;12.25;7.10;;;;;;;16.68;100.00;99645.97;3604722;39;20047;-64
2023/08/01 01:26:46;;;;;;;10.77;7.43;;;;;;;16.65;100.00;99643.59;3603940;39;20050;-63
2023/08/01 01:29:13;;;;;;;12.13;6.85;;;;;;;16.62;100.00;99643.06;3604121;39;20330;-64
2023/08/01 01:31:41;;;;;;;10.02;6.78;;;;;;;16.57;100.00;99645.41;3609337;39;20055;-64
2023/08/01 01:34:08;;;;;;;10.60;6.72;;;;;;;16.54;100.00;99637.59;3604454;39;20047;-64
2023/08/01 01:36:34;;;;;;;10.77;6.70;;;;;;;16.50;100.00;99644.34;3604649;39;20317;-63
2023/08/01 01:38:59;;;;;;;10.38;6.85;;;;;;;16.47;100.00;99635.53;3604502;39;20055;-64
2023/08/01 01:41:25;;;;;;;9.07;6.78;;;;;;;16.44;100.00;99629.56;3605059;39;20367;-65
2023/08/01 01:43:51;;;;;;;12.75;7.07;;;;;;;16.42;100.00;99637.84;3605618;39;20052;-64
2023/08/01 01:46:16;;;;;;;10.55;6.82;;;;;;;16.30;100.00;99620.19;3605159;39;20055;-64
2023/08/01 01:48:42;;;;;;;14.65;7.35;;;;;;;16.39;100.00;99637.31;3603838;39;20051;-64
2023/08/01 01:51:08;;;;;;;10.00;7.00;;;;;;;16.38;100.00;99631.06;3604211;39;20055;-64
2023/08/01 01:53:34;;;;;;;11.82;7.50;;;;;;;16.36;100.00;99633.06;3606650;39;20159;-64
2023/08/01 01:55:59;;;;;;;11.50;7.50;;;;;;;16.34;100.00;99634.28;3604166;39;20385;-64
2023/08/01 01:58:25;;;;;;;10.90;6.95;;;;;;;16.32;100.00;99630.84;3606845;39;20070;-64
2023/08/01 02:00:50;;;;;;;12.30;7.88;;;;;;;16.27;100.00;99631.34;3606527;39;20092;-64
2023/08/01 02:03:16;;;;;;;11.05;8.43;;;;;;;16.27;100.00;99628.66;3604758;39;20405;-64
2023/08/01 02:05:42;;;;;;;13.88;8.18;;;;;;;16.26;100.00;99640.47;3604622;39;20078;-64
2023/08/01 02:08:08;;;;;;;12.65;8.30;;;;;;;16.22;100.00;99639.09;3605784;39;20051;-64
2023/08/01 02:10:33;;;;;;;11.13;9.27;;;;;;;16.20;100.00;99630.28;3606260;39;20051;-64
2023/08/01 02:12:59;;;;;;;13.32;8.73;;;;;;;16.18;100.00;99630.44;3607022;39;20747;-64
2023/08/01 02:15:25;;;;;;;11.52;9.05;;;;;;;16.16;100.00;99631.63;3604853;39;20055;-64
2023/08/01 02:17:50;;;;;;;14.80;9.70;;;;;;;16.15;100.00;99632.63;3604359;39;20058;-64
2023/08/01 02:20:16;;;;;;;15.55;10.25;;;;;;;16.10;100.00;99635.81;3604324;39;20055;-64
2023/08/01 02:22:42;;;;;;;11.68;9.88;;;;;;;16.09;100.00;99638.69;3604144;39;20370;-64
2023/08/01 02:25:08;;;;;;;16.80;11.00;;;;;;;16.02;100.00;99628.50;3604996;39;20066;-64
2023/08/01 02:27:34;;;;;;;15.75;11.63;;;;;;;16.05;100.00;99637.28;3607450;39;20068;-64
2023/08/01 02:29:59;;;;;;;16.90;12.27;;;;;;;16.01;100.00;99634.91;3603839;39;20044;-64
2023/08/01 02:32:25;;;;;;;17.63;12.00;;;;;;;16.00;100.00;99635.91;3604282;39;20062;-65
2023/08/01 02:34:50;;;;;;;17.20;12.23;;;;;;;16.01;100.00;99643.03;3602715;39;20055;-65
2023/08/01 02:37:16;;;;;;;14.10;11.93;;;;;;;16.01;100.00;99643.03;3605068;39;20316;-64
2023/08/01 02:39:42;;;;;;;16.05;12.00;;;;;;;16.05;100.00;99648.13;3604081;39;20043;-64
2023/08/01 02:42:08;;;;;;;19.33;12.68;;;;;;;16.04;100.00;99658.13;3605988;39;20074;-64
2023/08/01 02:44:33;;;;;;;16.90;12.60;;;;;;;16.04;100.00;99641.88;3604698;39;20046;-64
2023/08/01 02:46:59;;;;;;;17.98;12.60;;;;;;;16.08;100.00;99650.53;3604363;39;20068;-64
2023/08/01 02:49:25;;;;;;;18.30;13.13;;;;;;;16.12;100.00;99660.06;3606674;39;20077;-64
2023/08/01 02:51:51;;;;;;;19.15;13.23;;;;;;;16.12;100.00;99662.78;3604528;39;20387;-65
2023/08/01 02:54:16;;;;;;;16.35;13.02;;;;;;;16.15;100.00;99654.31;3606620;39;20046;-64
2023/08/01 02:56:42;;;;;;;17.25;13.35;;;;;;;16.15;100.00;99662.47;3606673;39;20378;-64
2023/08/01 02:59:08;;;;;;;18.23;13.48;;;;;;;16.17;100.00;99646.84;3604050;39;20062;-64
2023/08/01 03:01:36;;;;;;;18.63;13.73;;;;;;;16.19;100.00;99653.00;3607856;39;20132;-64
2023/08/01 03:04:06;;;;;;;22.90;14.60;;;;;;;16.20;100.00;99649.25;3604200;39;20363;-64
2023/08/01 03:06:33;;;;;;;18.92;14.65;;;;;;;16.14;100.00;99645.34;3605099;39;20324;-64
2023/08/01 03:09:00;;;;;;;21.20;15.55;;;;;;;16.21;100.00;99645.56;3607538;39;20055;-65
2023/08/01 03:11:26;;;;;;;20.42;15.80;;;;;;;16.19;100.00;99642.13;3604361;39;20325;-64
2023/08/01 03:13:52;;;;;;;22.65;15.75;;;;;;;16.20;100.00;99644.69;3604250;39;20059;-64
2023/08/01 03:16:18;;;;;;;27.30;16.48;;;;;;;16.21;100.00;99649.09;3604875;39;20066;-64
2023/08/01 03:18:43;;;;;;;23.15;16.38;;;;;;;16.20;100.00;99649.25;3603805;39;20051;-64
2023/08/01 03:21:10;;;;;;;21.50;17.15;;;;;;;16.20;100.00;99649.25;3604483;39;20106;-64
2023/08/01 03:23:36;;;;;;;24.80;18.63;;;;;;;16.21;100.00;99649.09;3605513;39;20063;-64
2023/08/01 03:26:02;;;;;;;23.42;18.30;;;;;;;16.19;100.00;99634.00;3606749;39;20058;-63
2023/08/01 03:28:30;;;;;;;23.77;18.25;;;;;;;16.22;100.00;99647.25;3604691;39;20489;-64
2023/08/01 03:30:56;;;;;;;24.35;18.40;;;;;;;16.22;100.00;99649.97;3612694;39;20063;-64
2023/08/01 03:33:21;;;;;;;25.42;18.95;;;;;;;16.20;100.00;99641.13;3612307;39;20073;-62
2023/08/01 03:35:47;;;;;;;24.73;19.83;;;;;;;16.22;100.00;99641.81;3612225;39;20086;-64
2023/08/01 03:38:13;;;;;;;25.77;18.77;;;;;;;16.18;100.00;99641.28;3604160;39;20074;-65
2023/08/01 03:40:39;;;;;;;25.02;19.95;;;;;;;16.22;100.00;99641.81;3612111;39;20053;-68
2023/08/01 03:43:06;;;;;;;23.98;19.73;;;;;;;16.24;100.00;99650.66;3613466;39;20055;-64
2023/08/01 03:45:32;;;;;;;22.92;19.33;;;;;;;16.25;100.00;99655.91;3612304;39;20289;-64
2023/08/01 03:47:57;;;;;;;25.60;21.02;;;;;;;16.25;100.00;99655.06;3612689;39;20084;-64
2023/08/01 03:50:23;;;;;;;28.90;21.83;;;;;;;16.25;100.00;99657.78;3613350;39;20073;-64
2023/08/01 03:52:49;;;;;;;29.48;21.83;;;;;;;16.24;100.00;99656.06;3614620;39;20155;-63
2023/08/01 03:55:14;;;;;;;24.98;20.55;;;;;;;16.24;100.00;99664.22;3614123;39;20051;-62
2023/08/01 03:57:40;;;;;;;26.60;21.67;;;;;;;16.24;100.00;99661.50;3613969;39;20055;-63
2023/08/01 04:00:13;;;;;;;28.40;22.35;;;;;;;16.25;100.00;99657.78;3615875;39;20062;-63
2023/08/01 04:02:41;;;;;;;29.20;21.40;;;;;;;16.22;100.00;99658.09;3614241;39;20094;-63
2023/08/01 04:05:08;;;;;;;27.00;21.83;;;;;;;16.19;100.00;99650.28;3616145;39;20051;-64
2023/08/01 04:07:38;;;;;;;28.27;22.50;;;;;;;16.23;100.00;99651.66;3615221;39;20043;-62
2023/08/01 04:10:04;;;;;;;28.38;20.85;;;;;;;16.22;100.00;99655.38;3613282;39;20091;-62
2023/08/01 04:12:33;;;;;;;28.00;21.25;;;;;;;16.22;100.00;99652.66;3614400;39;20397;-64
2023/08/01 04:15:00;;;;;;;28.52;21.98;;;;;;;16.22;100.00;99649.97;3613698;39;20057;-63
2023/08/01 04:17:28;;;;;;;29.38;21.77;;;;;;;16.20;100.00;99650.09;3613902;39;20782;-63
2023/08/01 04:19:54;;;;;;;25.40;21.67;;;;;;;16.21;100.00;99659.09;3613888;39;20257;-63
2023/08/01 04:22:19;;;;;;;29.23;22.15;;;;;;;16.19;100.00;99661.97;3613260;39;20062;-63
2023/08/01 04:24:45;;;;;;;29.42;22.08;;;;;;;16.19;100.00;99661.13;3614145;39;20394;-64
2023/08/01 04:27:10;;;;;;;27.17;21.02;;;;;;;16.17;100.00;99649.56;3613569;39;20051;-63
2023/08/01 04:29:36;;;;;;;27.23;21.15;;;;;;;16.19;100.00;99650.28;3613835;39;20309;-64
2023/08/01 04:32:02;;;;;;;29.10;20.77;;;;;;;16.21;100.00;99650.97;3613417;39;20047;-64
2023/08/01 04:34:27;;;;;;;29.65;21.42;;;;;;;16.23;100.00;99648.94;3614675;39;20090;-64
2023/08/01 04:36:53;;;;;;;29.45;20.77;;;;;;;16.22;100.00;99647.25;3613452;39;20062;-64
2023/08/01 04:39:19;;;;;;;24.38;20.17;;;;;;;16.26;100.00;99654.03;3613317;39;20063;-63
2023/08/01 04:41:44;;;;;;;24.13;20.63;;;;;;;16.23;100.00;99657.06;3614708;39;20058;-64
2023/08/01 04:44:10;;;;;;;33.60;21.30;;;;;;;16.27;100.00;99649.47;3613218;39;20054;-63
2023/08/01 04:46:35;;;;;;;25.88;20.60;;;;;;;16.04;100.00;99611.19;3615637;39;20050;-63
2023/08/01 04:49:01;;;;;;;30.17;21.30;;;;;;;16.31;100.00;99661.72;3616627;39;20051;-63
2023/08/01 04:51:27;;;;;;;27.90;21.00;;;;;;;16.33;100.00;99660.50;3613541;39;20055;-63
2023/08/01 04:53:53;;;;;;;26.42;20.38;;;;;;;16.34;100.00;99667.66;3604527;39;20050;-64
2023/08/01 04:56:18;;;;;;;29.17;20.58;;;;;;;16.35;100.00;99674.78;3615558;39;20285;-63
2023/08/01 04:58:44;;;;;;;25.35;19.48;;;;;;;16.36;100.00;99675.63;3613534;39;20381;-63
2023/08/01 05:01:09;;;;;;;26.60;20.27;;;;;;;16.37;100.00;99675.47;3618855;39;20054;-63
2023/08/01 05:03:35;;;;;;;32.13;21.38;;;;;;;16.39;100.00;99670.72;3613575;39;20066;-63
2023/08/01 05:06:01;;;;;;;26.70;19.90;;;;;;;16.38;100.00;99671.75;3612989;39;20055;-63
2023/08/01 05:08:26;;;;;;;26.42;19.55;;;;;;;16.31;100.00;99662.56;3614792;39;20091;-63
2023/08/01 05:10:52;;;;;;;27.42;19.00;;;;;;;16.40;100.00;99671.59;3614865;39;20103;-64
2023/08/01 05:13:19;;;;;;;25.20;18.70;;;;;;;16.41;100.00;99674.13;3616816;39;20057;-63
2023/08/01 05:15:47;;;;;;;22.38;18.33;;;;;;;16.41;100.00;99679.56;3615454;39;20057;-63
2023/08/01 05:18:17;;;;;;;21.60;17.33;;;;;;;16.38;100.00;99679.88;3613457;39;20043;-63
2023/08/01 05:20:43;;;;;;;23.80;17.92;;;;;;;16.41;100.00;99678.72;3613357;39;20063;-64
2023/08/01 05:23:09;;;;;;;21.65;17.58;;;;;;;16.40;100.00;99679.75;3608410;39;20061;-63
2023/08/01 05:25:35;;;;;;;24.23;17.42;;;;;;;16.30;100.00;99658.16;3613742;39;20047;-63
2023/08/01 05:28:01;;;;;;;22.52;17.40;;;;;;;16.41;100.00;99674.13;3613041;39;20139;-63
2023/08/01 05:30:26;;;;;;;24.75;17.40;;;;;;;16.40;100.00;99679.75;3616728;39;20051;-63
2023/08/01 05:32:53;;;;;;;24.60;17.15;;;;;;;16.38;100.00;99682.59;3612858;39;20070;-63
2023/08/01 05:35:20;;;;;;;25.45;17.92;;;;;;;16.38;100.00;99682.59;3613424;39;20066;-63
2023/08/01 05:37:46;;;;;;;22.95;17.23;;;;;;;16.33;100.00;99674.06;3614881;39;20319;-63
2023/08/01 05:40:12;;;;;;;23.38;17.70;;;;;;;16.39;100.00;99687.00;3612919;39;20083;-64
2023/08/01 05:42:38;;;;;;;25.55;18.15;;;;;;;16.39;100.00;99680.72;3613520;39;20069;-63
2023/08/01 05:45:04;;;;;;;23.33;18.02;;;;;;;16.44;100.00;99678.41;3618016;39;20374;-63
2023/08/01 05:47:30;;;;;;;22.02;16.92;;;;;;;16.43;100.00;99677.56;3612997;39;20359;-64
2023/08/01 05:49:56;;;;;;;22.50;17.17;;;;;;;16.53;100.00;99688.28;3612877;39;20341;-64
2023/08/01 05:52:22;;;;;;;22.92;16.52;;;;;;;16.40;100.00;99667.03;3613840;39;20184;-63
2023/08/01 05:54:48;;;;;;;23.35;16.70;;;;;;;16.62;100.00;99697.31;3613783;39;20057;-64
2023/08/01 05:57:14;;;;;;;23.20;17.15;;;;;;;16.66;100.00;99690.56;3614186;39;20125;-63
2023/08/01 05:59:40;;;;;;;22.02;16.40;;;;;;;16.69;100.00;99701.09;3612875;39;20409;-64
2023/08/01 06:02:06;;;;;;;23.60;15.93;;;;;;;16.68;100.00;99702.06;3612822;39;20058;-63
2023/08/01 06:04:32;;;;;;;19.38;15.88;;;;;;;16.74;100.00;99693.28;3613101;39;20058;-64
2023/08/01 06:06:58;;;;;;;21.70;15.82;;;;;;;16.80;100.00;99694.53;3613805;39;20070;-63
2023/08/01 06:09:24;;;;;;;24.60;15.68;;;;;;;16.89;100.00;99704.44;3612453;39;20059;-64
2023/08/01 06:11:51;;;;;;;20.90;15.48;;;;;;;16.89;100.00;99693.56;3614920;39;20066;-64
2023/08/01 06:14:17;;;;;;;20.90;14.90;;;;;;;16.94;100.00;99708.34;3612790;39;20082;-64
2023/08/01 06:16:43;;;;;;;19.33;15.27;;;;;;;16.98;100.00;99708.03;3605664;39;20051;-64
2023/08/01 06:19:09;;;;;;;20.83;15.18;;;;;;;16.99;100.00;99715.16;3612253;39;20051;-63
2023/08/01 06:21:35;;;;;;;20.10;15.98;;;;;;;17.03;100.00;99708.38;3612955;39;20051;-64
2023/08/01 06:24:00;;;;;;;20.83;14.30;;;;;;;17.06;100.00;99710.75;3613426;39;20089;-64
2023/08/01 06:26:28;;;;;;;23.90;16.08;;;;;;;17.08;100.00;99714.19;3614672;39;20361;-64
2023/08/01 06:28:53;;;;;;;20.60;14.93;;;;;;;17.09;100.00;99711.28;3610529;39;20034;-64
2023/08/01 06:31:22;;;;;;;20.80;15.07;;;;;;;17.08;100.00;99714.19;3614840;39;20063;-64
2023/08/01 06:33:48;;;;;;;22.60;15.73;;;;;;;17.09;100.00;99715.88;3613249;39;20321;-63
2023/08/01 06:36:16;;;;;;;19.80;15.55;;;;;;;16.56;100.00;99622.84;3615215;39;20043;-64
2023/08/01 06:38:42;;;;;;;23.73;15.65;;;;;;;17.12;100.00;99715.53;3614131;39;20046;-64
2023/08/01 06:41:07;;;;;;;21.92;15.52;;;;;;;17.15;100.00;99709.78;3616166;39;20054;-64
2023/08/01 06:43:33;;;;;;;21.73;15.18;;;;;;;17.22;100.00;99716.28;3612860;39;20077;-64
2023/08/01 06:45:58;;;;;;;18.35;14.63;;;;;;;17.37;99.71;99714.59;3612581;39;20209;-64
2023/08/01 06:48:24;;;;;;;16.77;13.82;;;;;;;17.48;99.37;99724.31;3612970;39;20105;-64
2023/08/01 06:50:50;;;;;;;17.98;14.02;;;;;;;17.60;98.75;99719.38;3612445;39;20070;-64
2023/08/01 06:53:16;;;;;;;17.98;12.95;;;;;;;17.69;97.95;99723.81;3615554;39;20066;-64
2023/08/01 06:55:42;;;;;;;18.65;12.77;;;;;;;17.76;97.13;99719.44;3613686;39;20130;-64
2023/08/01 06:58:07;;;;;;;15.77;12.75;;;;;;;17.80;96.17;99734.41;3615035;39;20063;-63
2023/08/01 07:00:33;;;;;;;17.80;11.63;;;;;;;17.77;95.63;99732.03;3612549;39;20063;-64
2023/08/01 07:02:59;;;;;;;13.25;10.57;;;;;;;17.75;94.72;99735.91;3612062;39;20096;-64
2023/08/01 07:05:24;;;;;;;13.93;10.27;;;;;;;17.70;94.16;99747.28;3612717;39;20095;-63
2023/08/01 07:07:50;;;;;;;13.38;10.48;;;;;;;17.61;95.44;99731.97;3616473;39;20074;-63
2023/08/01 07:10:15;;;;;;;15.50;10.68;;;;;;;17.80;95.59;99742.56;3612641;39;20122;-63
2023/08/01 07:12:41;;;;;;;14.50;9.57;;;;;;;17.91;94.95;99743.25;3613925;39;20050;-63
2023/08/01 07:15:08;;;;;;;12.15;9.50;;;;;;;17.80;94.78;99719.97;3613437;39;20058;-63
2023/08/01 07:17:33;;;;;;;12.90;8.60;;;;;;;18.06;93.88;99747.84;3612064;39;20672;-63
2023/08/01 07:19:59;;;;;;;14.50;7.72;;;;;;;18.16;92.90;99753.13;3611522;39;20058;-63
2023/08/01 07:22:25;;;;;;;10.77;8.10;;;;;;;18.28;93.07;99740.88;3614139;39;20058;-64
2023/08/01 07:24:54;;;;;;;12.75;7.90;;;;;;;18.36;91.46;99737.28;3613199;39;20074;-63
2023/08/01 07:27:21;;;;;;;12.35;7.55;;;;;;;18.39;91.31;99736.94;3614926;39;20061;-63
2023/08/01 07:29:46;;;;;;;11.05;7.28;;;;;;;18.34;90.03;99742.06;3613925;39;20111;-63
2023/08/01 07:32:12;;;;;;;11.88;7.25;;;;;;;18.20;90.26;99727.28;3614476;39;20058;-63
2023/08/01 07:34:38;;;;;;;13.98;7.13;;;;;;;18.20;90.62;99738.16;3613860;39;20297;-63
2023/08/01 07:37:04;;;;;;;10.45;7.00;;;;;;;18.18;90.65;99745.66;3618062;39;20396;-63
2023/08/01 07:39:29;;;;;;;11.25;6.35;;;;;;;18.25;91.15;99751.25;3613526;39;20120;-63
2023/08/01 07:41:58;;;;;;;13.90;6.18;;;;;;;18.36;91.70;99750.03;3615310;39;20055;-63
2023/08/01 07:44:23;;;;;;;11.65;6.15;;;;;;;18.44;91.15;99739.16;3613964;39;20043;-64
2023/08/01 07:46:49;;;;;;;8.38;5.63;;;;;;;18.54;89.85;99751.56;3617897;39;20066;-63
2023/08/01 07:49:15;;;;;;;7.97;5.88;;;;;;;18.58;89.93;99757.50;3617334;39;20312;-63
2023/08/01 07:51:40;;;;;;;11.32;5.53;;;;;;;18.57;88.05;99758.53;3614446;39;20381;-63
2023/08/01 07:54:06;;;;;;;10.15;5.47;;;;;;;18.54;88.32;99756.16;3615064;39;20042;-63
2023/08/01 07:56:31;;;;;;;6.97;4.20;;;;;;;18.55;87.20;99763.28;3614161;39;20043;-64
2023/08/01 07:58:57;;;;;;;11.98;4.60;;;;;;;18.51;87.38;99753.78;3613583;39;20069;-63
2023/08/01 08:01:23;;;;;;;9.43;4.57;;;;;;;18.53;87.60;99765.34;3613774;39;20058;-64
2023/08/01 08:03:48;;;;;;;6.78;4.13;;;;;;;18.52;87.65;99755.47;3616683;39;20086;-64
2023/08/01 08:06:14;;;;;;;8.02;4.30;;;;;;;18.50;87.09;99760.25;3614033;39;20047;-64
2023/08/01 08:08:40;;;;;;;6.53;3.85;;;;;;;18.44;86.78;99750.91;3614636;39;20046;-63
2023/08/01 08:11:05;;;;;;;10.20;4.20;;;;;;;18.52;86.94;99758.19;3613722;39;20062;-64
2023/08/01 08:13:31;;;;;;;5.93;4.30;;;;;;;18.67;86.71;99756.47;3613798;39;20083;-63
2023/08/01 08:15:57;;;;;;;8.95;4.47;;;;;;;18.56;86.15;99725.03;3603464;39;20066;-64
2023/08/01 08:18:23;;;;;;;8.50;3.95;;;;;;;19.03;85.29;99777.88;3614411;39;20096;-64
2023/08/01 08:20:49;;;;;;;6.57;3.80;;;;;;;19.20;83.77;99757.69;3613763;39;20087;-64
2023/08/01 08:23:15;;;;;;;8.25;3.60;;;;;;;19.41;82.10;99758.94;3603914;39;20051;-64
2023/08/01 08:25:46;;;;;;;7.97;3.70;;;;;;;19.62;81.23;99755.59;3614358;39;20043;-64
2023/08/01 08:28:13;;;;;;;6.63;3.80;;;;;;;19.88;80.28;99771.66;3614988;39;20134;-63
2023/08/01 08:30:39;;;;;;;7.18;3.63;;;;;;;20.01;78.65;99776.50;3613399;39;20051;-64
2023/08/01 08:33:06;;;;;;;5.35;3.72;;;;;;;20.04;77.93;99771.53;3613199;39;20055;-64
2023/08/01 08:35:34;;;;;;;6.47;3.58;;;;;;;20.09;77.84;99779.19;3616588;39;20350;-64
2023/08/01 08:38:03;;;;;;;8.07;4.00;;;;;;;20.22;77.41;99784.03;3617633;39;20043;-64
2023/08/01 08:40:33;;;;;;;5.80;3.83;;;;;;;20.24;76.64;99780.09;3614865;39;20075;-63
2023/08/01 08:43:03;;;;;;;6.53;3.40;;;;;;;20.15;76.92;99778.47;3606245;39;20053;-63
2023/08/01 08:45:35;;;;;;;7.10;3.80;;;;;;;19.98;75.25;99787.78;3615433;39;20474;-63
2023/08/01 08:48:12;;;;;;;5.75;3.03;;;;;;;19.73;75.54;99792.53;3613789;39;20053;-64
2023/08/01 08:50:40;;;;;;;5.75;3.70;;;;;;;19.49;76.84;99786.19;3613268;39;20286;-63
2023/08/01 08:53:12;;;;;;;8.40;4.00;;;;;;;19.29;77.93;99782.19;3613426;39;20039;-64
2023/08/01 08:55:41;;;;;;;6.53;3.70;;;;;;;19.10;80.28;99787.03;3613422;39;20083;-64
2023/08/01 08:58:11;;;;;;;7.80;3.70;;;;;;;18.96;81.55;99793.19;3603583;39;20059;-64
2023/08/01 09:00:40;;;;;;;6.60;3.17;;;;;;;18.78;81.25;99794.25;3616643;39;20054;-64
2023/08/01 09:03:05;;;;;;;7.88;3.15;;;;;;;18.62;83.27;99807.88;3613551;39;20426;-64
2023/08/01 09:05:44;;;;;;;5.57;3.22;;;;;;;18.46;85.79;99802.44;3612980;39;20059;-63
2023/08/01 09:08:19;;;;;;;4.72;3.30;;;;;;;18.32;86.82;99793.91;3618218;39;20188;-65
2023/08/01 09:10:47;;;;;;;6.22;3.10;;;;;;;18.06;87.68;99763.31;3613446;39;20120;-63
2023/08/01 09:13:14;;;;;;;5.63;3.55;;;;;;;18.08;88.62;99793.94;3614892;39;20051;-63
2023/08/01 09:15:45;;;;;;;5.72;3.17;;;;;;;17.73;89.60;99759.66;3620700;39;20051;-63
2023/08/01 09:18:11;;;;;;;4.60;2.60;;;;;;;17.89;90.97;99802.38;3604038;39;20047;-64
2023/08/01 09:20:57;;;;;;;5.40;2.78;;;;;;;17.77;89.92;99805.44;3613169;39;20138;-64
2023/08/01 09:23:25;;;;;;;5.53;2.92;;;;;;;17.66;90.99;99808.41;3614079;39;20043;-64
2023/08/01 09:25:51;;;;;;;4.85;2.92;;;;;;;17.56;92.57;99810.44;3613500;39;20058;-63
2023/08/01 09:28:24;;;;;;;6.90;3.78;;;;;;;17.50;93.85;99805.66;3619999;39;20277;-63
2023/08/01 09:30:54;;;;;;;8.80;3.75;;;;;;;17.47;93.63;99814.13;3613409;39;20054;-63
2023/08/01 09:33:20;;;;;;;9.10;4.05;;;;;;;17.43;95.62;99810.91;3614878;39;20239;-63
2023/08/01 09:35:46;;;;;;;8.57;4.22;;;;;;;17.47;95.68;99816.84;3613524;39;20069;-63
2023/08/01 09:38:16;;;;;;;7.80;3.92;;;;;;;17.48;94.97;99815.84;3615194;39;20343;-64
2023/08/01 09:40:44;;;;;;;5.47;2.50;;;;;;;17.37;90.48;99812.41;3616840;39;20401;-64
2023/08/01 09:43:14;;;;;;;5.30;2.35;;;;;;;17.25;88.92;99804.69;3620770;39;20055;-64
2023/08/01 09:45:53;;;;;;;3.70;2.33;;;;;;;17.29;89.18;99814.25;3613971;39;20047;-63
2023/08/01 09:48:25;;;;;;;4.82;2.00;;;;;;;17.32;90.21;99814.78;3613537;39;20095;-64
2023/08/01 09:50:51;;;;;;;3.97;2.10;;;;;;;17.41;89.22;99812.91;3615375;39;20694;-63
2023/08/01 09:53:17;;;;;;;6.80;2.45;;;;;;;17.51;89.65;99821.81;3617535;39;20061;-63
2023/08/01 09:55:47;;;;;;;4.65;2.22;;;;;;;17.63;89.84;99817.78;3613511;39;20053;-64
2023/08/01 09:58:20;;;;;;;5.28;2.00;;;;;;;17.82;90.10;99815.78;3612376;39;20408;-63
2023/08/01 10:00:47;;;;;;;4.18;2.20;;;;;;;18.08;90.46;99821.13;3612378;39;20062;-64
2023/08/01 10:03:14;;;;;;;4.82;2.22;;;;;;;18.23;89.33;99819.41;3612747;39;20404;-64
2023/08/01 10:05:41;;;;;;;6.45;2.80;;;;;;;18.41;89.66;99821.16;3612875;39;20054;-64
2023/08/01 10:08:08;;;;;;;5.68;2.88;;;;;;;18.56;88.67;99824.88;3615674;39;20050;-64
2023/08/01 10:10:35;;;;;;;5.55;2.88;;;;;;;18.95;90.27;99816.00;3614470;39;20146;-63
2023/08/01 10:13:01;;;;;;;7.43;3.10;;;;;;;19.38;88.63;99822.03;3613502;39;20110;-63
2023/08/01 10:15:29;;;;;;;4.60;2.38;;;;;;;19.76;87.39;99827.63;3612353;39;20480;-63
2023/08/01 10:17:54;;;;;;;6.47;2.70;;;;;;;20.19;85.68;99834.38;3612747;39;20051;-63
2023/08/01 10:20:22;;;;;;;7.45;3.15;;;;;;;20.52;81.15;99835.00;3616227;39;20058;-64
2023/08/01 10:22:53;;;;;;;4.30;2.53;;;;;;;20.92;79.74;99843.00;3615386;39;20126;-64
2023/08/01 10:25:21;;;;;;;6.03;3.20;;;;;;;20.99;74.20;99831.13;3617718;39;20123;-65
2023/08/01 10:27:59;;;;;;;8.35;3.20;;;;;;;20.78;73.90;99845.53;3615877;39;20058;-65
2023/08/01 10:30:29;;;;;;;8.25;2.95;;;;;;;20.46;75.84;99841.16;3602877;39;20278;-65
2023/08/01 10:32:58;;;;;;;9.57;3.38;;;;;;;20.11;76.67;99838.00;3611089;39;20062;-65
2023/08/01 10:35:39;;;;;;;5.70;2.78;;;;;;;19.80;78.86;99840.75;3614524;39;20055;-65
2023/08/01 10:38:11;;;;;;;8.00;3.25;;;;;;;19.57;80.48;99845.25;3615814;39;20053;-65
2023/08/01 10:40:37;;;;;;;7.10;3.13;;;;;;;19.50;82.82;99834.22;3613979;39;20318;-63
2023/08/01 10:43:04;;;;;;;7.97;3.30;;;;;;;19.38;82.07;99847.41;3614230;39;20051;-64
2023/08/01 10:45:30;;;;;;;7.35;3.40;;;;;;;19.25;83.48;99839.78;3612491;39;20319;-64
2023/08/01 10:48:12;;;;;;;8.82;3.20;;;;;;;19.16;84.29;99845.41;3612381;39;20360;-63
2023/08/01 10:50:38;;;;;;;8.05;3.22;;;;;;;19.06;84.17;99836.56;3609111;39;20269;-64
2023/08/01 10:53:10;;;;;;;6.70;3.45;;;;;;;19.00;85.15;99849.03;3614468;39;20082;-64
2023/08/01 10:55:46;;;;;;;6.60;3.20;;;;;;;18.72;84.42;99821.31;3612562;39;20043;-63
2023/08/01 10:58:13;;;;;;;7.88;3.20;;;;;;;18.79;85.85;99853.13;3612682;39;20091;-64
2023/08/01 11:00:39;;;;;;;7.38;2.88;;;;;;;18.87;87.28;99854.13;3614508;39;20055;-64
2023/08/01 11:03:05;;;;;;;7.70;3.05;;;;;;;18.90;84.30;99861.97;3614867;39;20089;-64
2023/08/01 11:05:30;;;;;;;7.35;2.65;;;;;;;18.91;84.37;99863.69;3604313;39;20050;-63
2023/08/01 11:07:59;;;;;;;7.15;3.08;;;;;;;18.89;83.80;99882.91;3619763;39;20054;-63
2023/08/01 11:10:32;;;;;;;8.43;2.63;;;;;;;18.58;83.62;99841.88;3615828;39;20047;-63
2023/08/01 11:12:59;;;;;;;6.40;2.97;;;;;;;18.69;84.34;99874.22;3619643;39;20058;-64
2023/08/01 11:15:25;;;;;;;10.32;3.30;;;;;;;18.59;84.69;99867.25;3615003;39;20062;-63
2023/08/01 11:17:55;;;;;;;6.45;2.78;;;;;;;18.43;85.19;99858.06;3614095;39;20070;-64